createdAt,value
2018-03-14T00:01:51.882Z,12.40
2018-03-14T00:05:54.462Z,10.30
2018-03-14T00:09:57.863Z,10.47
2018-03-14T00:14:00.560Z,11.07
2018-03-14T00:18:08.062Z,12.47
2018-03-14T00:22:10.704Z,9.17
2018-03-14T00:26:14.030Z,9.80
2018-03-14T00:30:16.600Z,10.27
2018-03-14T00:34:19.141Z,11.50
2018-03-14T00:38:21.718Z,13.23
2018-03-14T00:42:24.320Z,10.30
2018-03-14T00:46:26.899Z,10.13
2018-03-14T00:50:30.361Z,10.33
2018-03-14T00:54:33.021Z,11.80
2018-03-14T00:58:35.581Z,12.93
2018-03-14T01:02:38.148Z,14.00
2018-03-14T01:06:40.690Z,12.30
2018-03-14T01:10:43.264Z,9.70
2018-03-14T01:14:45.803Z,9.47
2018-03-14T01:18:48.485Z,11.30
2018-03-14T01:22:51.034Z,10.37
2018-03-14T01:26:53.603Z,10.47
2018-03-14T01:30:56.157Z,10.47
2018-03-14T01:34:59.583Z,13.53
2018-03-14T01:39:08.539Z,16.70
2018-03-14T01:43:11.233Z,11.83
2018-03-14T01:47:13.773Z,11.40
2018-03-14T01:51:16.338Z,13.40
2018-03-14T01:55:18.868Z,10.53
2018-03-14T01:59:22.203Z,10.00
2018-03-14T02:03:24.763Z,8.47
2018-03-14T02:07:27.314Z,8.73
2018-03-14T02:11:29.916Z,9.43
2018-03-14T02:15:32.472Z,9.37
2018-03-14T02:19:35.002Z,10.53
2018-03-14T02:23:37.582Z,9.07
2018-03-14T02:27:40.122Z,8.73
2018-03-14T02:31:42.711Z,8.43
2018-03-14T02:35:45.275Z,10.80
2018-03-14T02:39:48.284Z,9.67
2018-03-14T02:43:50.844Z,8.07
2018-03-14T02:47:53.505Z,9.83
2018-03-14T02:51:56.798Z,10.13
2018-03-14T02:55:59.336Z,9.90
2018-03-14T03:00:02.623Z,10.17
2018-03-14T03:04:05.205Z,10.37
2018-03-14T03:08:07.731Z,12.00
2018-03-14T03:12:10.771Z,11.40
2018-03-14T03:16:14.069Z,12.47
2018-03-14T03:20:16.918Z,11.43
2018-03-14T03:24:20.221Z,12.00
2018-03-14T03:28:22.835Z,11.57
2018-03-14T03:32:26.134Z,12.20
2018-03-14T03:36:28.680Z,11.90
2018-03-14T03:40:31.969Z,10.83
2018-03-14T03:44:34.521Z,11.87
2018-03-14T03:48:40.170Z,11.53
2018-03-14T03:52:42.741Z,11.13
2018-03-14T03:56:45.252Z,11.43
2018-03-14T04:00:47.800Z,12.83
2018-03-14T04:04:51.095Z,14.00
2018-03-14T04:08:53.691Z,12.23
2018-03-14T04:12:56.230Z,11.93
2018-03-14T04:16:59.636Z,10.43
2018-03-14T04:21:02.152Z,12.20
2018-03-14T04:25:04.721Z,15.10
2018-03-14T04:29:07.246Z,13.80
2018-03-14T04:33:09.968Z,11.63
2018-03-14T04:37:13.262Z,14.40
2018-03-14T04:41:16.217Z,11.47
2018-03-14T04:45:19.590Z,15.63
2018-03-14T04:49:22.166Z,11.60
2018-03-14T04:53:24.704Z,12.43
2018-03-14T04:57:27.279Z,13.00
2018-03-14T05:01:29.791Z,17.07
2018-03-14T05:05:33.408Z,13.03
2018-03-14T05:09:35.963Z,13.40
2018-03-14T05:13:38.517Z,14.80
2018-03-14T05:17:41.047Z,13.17
2018-03-14T05:21:43.878Z,15.57
2018-03-14T05:25:46.412Z,16.47
2018-03-14T05:29:48.986Z,11.83
2018-03-14T05:33:51.518Z,10.40
2018-03-14T05:37:54.098Z,12.87
2018-03-14T05:41:56.669Z,12.30
2018-03-14T05:45:59.329Z,11.47
2018-03-14T05:50:03.866Z,12.93
2018-03-14T05:54:06.434Z,12.07
2018-03-14T05:58:08.964Z,11.23
2018-03-14T06:02:11.578Z,11.37
2018-03-14T06:06:14.808Z,18.63
2018-03-14T06:10:17.387Z,49.43
2018-03-14T06:14:24.515Z,35.53
2018-03-14T06:18:27.067Z,22.40
2018-03-14T06:22:29.610Z,22.00
2018-03-14T06:26:32.156Z,24.13
2018-03-14T06:30:34.681Z,17.70
2018-03-14T06:34:37.534Z,20.67
2018-03-14T06:38:40.071Z,18.37
2018-03-14T06:42:42.632Z,18.53
2018-03-14T06:46:45.164Z,18.77
2018-03-14T06:50:47.796Z,19.00
2018-03-14T06:54:56.436Z,20.27
2018-03-14T06:59:10.804Z,21.77
2018-03-14T07:03:25.480Z,24.03
2018-03-14T07:07:28.161Z,27.37
2018-03-14T07:11:30.687Z,26.53
2018-03-14T07:15:33.236Z,22.50
2018-03-14T07:19:35.772Z,20.63
2018-03-14T07:23:39.322Z,26.77
2018-03-14T07:27:41.867Z,20.53
2018-03-14T07:31:44.451Z,28.80
2018-03-14T07:35:47.022Z,26.10
2018-03-14T07:39:50.353Z,20.93
2018-03-14T07:43:54.590Z,23.13
2018-03-14T07:47:57.911Z,27.10
2018-03-14T07:52:00.442Z,22.47
2018-03-14T07:56:03.014Z,13.43
2018-03-14T08:00:06.355Z,17.57
2018-03-14T08:04:09.669Z,18.70
2018-03-14T08:08:12.208Z,16.07
2018-03-14T08:12:14.763Z,19.07
2018-03-14T08:16:17.280Z,22.53
2018-03-14T08:20:19.885Z,17.93
2018-03-14T08:24:22.373Z,17.03
2018-03-14T08:28:24.958Z,18.13
2018-03-14T08:32:30.951Z,19.57
2018-03-14T08:36:35.557Z,17.63
2018-03-14T08:40:38.853Z,19.00
2018-03-14T08:44:46.942Z,18.33
2018-03-14T08:48:49.543Z,16.13
2018-03-14T08:52:52.119Z,24.83
2018-03-14T08:56:54.660Z,14.63
2018-03-14T09:00:57.212Z,23.20
2018-03-14T09:04:59.750Z,15.13
2018-03-14T09:09:04.091Z,15.87
2018-03-14T09:13:07.386Z,11.10
2018-03-14T09:17:09.994Z,13.23
2018-03-14T09:21:12.543Z,11.27
2018-03-14T09:25:15.107Z,11.23
2018-03-14T09:29:17.623Z,7.67
2018-03-14T09:33:20.230Z,10.47
2018-03-14T09:37:22.755Z,8.80
2018-03-14T09:41:26.081Z,7.30
2018-03-14T09:45:29.377Z,6.70
2018-03-14T09:49:43.699Z,7.83
2018-03-14T09:53:46.300Z,6.80
2018-03-14T09:57:50.836Z,9.80
2018-03-14T10:01:54.129Z,7.53
2018-03-14T10:05:57.657Z,7.73
2018-03-14T10:10:00.195Z,8.50
2018-03-14T10:14:03.843Z,9.13
2018-03-14T10:18:08.374Z,8.00
2018-03-14T10:22:10.945Z,7.47
2018-03-14T10:26:13.485Z,7.97
2018-03-14T10:30:16.415Z,8.27
2018-03-14T10:34:18.978Z,9.77
2018-03-14T10:38:21.523Z,9.43
2018-03-14T10:42:24.800Z,9.57
2018-03-14T10:46:27.366Z,10.07
2018-03-14T10:50:30.196Z,9.13
2018-03-14T10:54:33.602Z,8.87
2018-03-14T10:58:36.177Z,6.97
2018-03-14T11:02:44.276Z,9.93
2018-03-14T11:06:46.793Z,9.43
2018-03-14T11:10:49.438Z,6.77
2018-03-14T11:14:51.983Z,8.77
2018-03-14T11:18:54.547Z,7.00
2018-03-14T11:22:57.842Z,8.90
2018-03-14T11:27:00.490Z,8.13
2018-03-14T11:31:03.012Z,6.03
2018-03-14T11:35:05.584Z,8.47
2018-03-14T11:39:08.878Z,7.53
2018-03-14T11:43:11.520Z,8.47
2018-03-14T11:47:14.823Z,9.43
2018-03-14T11:51:17.385Z,6.07
2018-03-14T11:55:19.926Z,5.80
2018-03-14T11:59:22.531Z,11.43
2018-03-14T12:03:25.057Z,4.97
2018-03-14T12:07:39.693Z,6.43
2018-03-14T12:11:42.269Z,5.67
2018-03-14T12:15:45.583Z,8.93
2018-03-14T12:19:48.881Z,5.77
2018-03-14T12:23:51.833Z,4.30
2018-03-14T12:27:58.275Z,4.93
2018-03-14T12:32:00.812Z,4.63
2018-03-14T12:36:03.333Z,5.23
2018-03-14T12:40:06.680Z,6.03
2018-03-14T12:44:09.212Z,5.37
2018-03-14T12:48:11.786Z,6.07
2018-03-14T12:52:15.082Z,8.03
2018-03-14T12:56:18.415Z,5.10
2018-03-14T13:00:21.719Z,6.27
2018-03-14T13:04:24.357Z,6.43
2018-03-14T13:08:26.889Z,8.53
2018-03-14T13:12:29.443Z,5.27
2018-03-14T13:16:31.983Z,8.30
2018-03-14T13:20:34.552Z,9.00
2018-03-14T13:24:40.212Z,10.30
2018-03-14T13:28:42.996Z,11.27
2018-03-14T13:32:45.542Z,7.70
2018-03-14T13:36:48.163Z,7.03
2018-03-14T13:40:50.725Z,7.43
2018-03-14T13:44:53.306Z,6.67
2018-03-14T13:48:56.185Z,4.70
2018-03-14T13:52:59.693Z,6.60
2018-03-14T13:57:03.212Z,4.10
2018-03-14T14:01:05.885Z,5.53
2018-03-14T14:05:08.427Z,9.47
2018-03-14T14:09:11.048Z,6.33
2018-03-14T14:13:13.603Z,7.77
2018-03-14T14:17:19.964Z,4.97
2018-03-14T14:21:23.472Z,4.57
2018-03-14T14:25:26.065Z,8.00
2018-03-14T14:29:28.599Z,4.87
2018-03-14T14:33:31.156Z,4.83
2018-03-14T14:37:34.615Z,6.00
2018-03-14T14:41:37.248Z,4.73
2018-03-14T14:45:39.735Z,5.27
2018-03-14T14:49:43.561Z,6.47
2018-03-14T14:53:46.062Z,6.60
2018-03-14T14:57:52.826Z,5.10
2018-03-14T15:01:55.365Z,5.33
2018-03-14T15:05:58.362Z,9.80
2018-03-14T15:10:00.874Z,5.23
2018-03-14T15:14:03.422Z,5.53
2018-03-14T15:18:05.934Z,6.57
2018-03-14T15:22:10.239Z,5.73
2018-03-14T15:26:12.764Z,6.97
2018-03-14T15:30:15.551Z,7.87
2018-03-14T15:34:18.060Z,6.17
2018-03-14T15:38:20.894Z,5.47
2018-03-14T15:42:23.404Z,5.97
2018-03-14T15:46:26.053Z,6.67
2018-03-14T15:50:28.582Z,7.23
2018-03-14T15:54:31.190Z,5.27
2018-03-14T15:58:33.726Z,4.80
2018-03-14T16:02:39.796Z,3.90
2018-03-14T16:06:42.337Z,5.70
2018-03-14T16:10:46.897Z,5.47
2018-03-14T16:14:50.193Z,5.63
2018-03-14T16:18:52.872Z,6.33
2018-03-14T16:22:55.393Z,5.27
2018-03-14T16:26:58.063Z,6.03
2018-03-14T16:31:00.615Z,5.77
2018-03-14T16:35:03.570Z,6.37
2018-03-14T16:39:06.870Z,7.57
2018-03-14T16:43:09.459Z,5.27
2018-03-14T16:47:11.990Z,6.83
2018-03-14T16:51:15.421Z,5.27
2018-03-14T16:55:25.338Z,6.07
2018-03-14T16:59:27.911Z,4.60
2018-03-14T17:03:30.454Z,4.73
2018-03-14T17:07:33.058Z,7.97
2018-03-14T17:11:35.666Z,4.53
2018-03-14T17:15:38.241Z,7.13
2018-03-14T17:19:42.516Z,9.27
2018-03-14T17:23:45.056Z,6.23
2018-03-14T17:27:47.562Z,6.60
2018-03-14T17:31:50.220Z,5.87
2018-03-14T17:35:53.676Z,7.70
2018-03-14T17:39:56.239Z,6.20
2018-03-14T17:43:59.518Z,7.50
2018-03-14T17:48:02.082Z,9.23
2018-03-14T17:52:04.617Z,8.40
2018-03-14T17:56:08.456Z,11.27
2018-03-14T18:00:12.922Z,11.90
2018-03-14T18:04:15.491Z,11.27
2018-03-14T18:08:18.069Z,9.80
2018-03-14T18:12:24.367Z,9.40
2018-03-14T18:16:27.685Z,11.63
2018-03-14T18:20:31.094Z,12.87
2018-03-14T18:24:33.630Z,15.03
2018-03-14T18:28:36.198Z,13.17
2018-03-14T18:32:39.663Z,14.93
2018-03-14T18:36:42.350Z,18.67
2018-03-14T18:40:45.633Z,16.03
2018-03-14T18:44:49.186Z,16.03
2018-03-14T18:48:51.741Z,15.10
2018-03-14T18:52:54.474Z,22.93
2018-03-14T18:56:57.031Z,20.47
2018-03-14T19:01:01.383Z,21.63
2018-03-14T19:05:04.693Z,21.47
2018-03-14T19:09:08.092Z,23.50
2018-03-14T19:13:10.655Z,21.37
2018-03-14T19:17:14.566Z,21.10
2018-03-14T19:21:17.871Z,23.93
2018-03-14T19:25:21.517Z,18.80
2018-03-14T19:29:25.514Z,20.30
2018-03-14T19:33:28.160Z,20.77
2018-03-14T19:37:33.407Z,21.50
2018-03-14T19:41:36.479Z,20.27
2018-03-14T19:45:39.990Z,22.20
2018-03-14T19:49:42.581Z,23.30
2018-03-14T19:53:45.128Z,19.83
2018-03-14T19:57:47.933Z,19.20
2018-03-14T20:01:50.498Z,21.50
2018-03-14T20:05:53.037Z,21.53
2018-03-14T20:09:56.509Z,22.27
2018-03-14T20:14:01.432Z,22.53
2018-03-14T20:18:05.952Z,22.23
2018-03-14T20:22:10.537Z,22.33
2018-03-14T20:26:13.187Z,24.20
2018-03-14T20:30:15.756Z,27.40
2018-03-14T20:34:21.688Z,23.00
2018-03-14T20:38:24.259Z,23.00
2018-03-14T20:42:30.498Z,22.43
2018-03-14T20:46:33.939Z,22.30
2018-03-14T20:50:37.572Z,21.20
2018-03-14T20:54:40.888Z,22.57
2018-03-14T20:58:44.295Z,23.00
2018-03-14T21:02:47.537Z,22.13
2018-03-14T21:06:50.840Z,20.07
2018-03-14T21:10:54.386Z,24.63
2018-03-14T21:14:56.961Z,20.60
2018-03-14T21:18:59.513Z,22.43
2018-03-14T21:23:02.046Z,25.57
2018-03-14T21:27:04.643Z,27.17
2018-03-14T21:31:07.222Z,27.00
2018-03-14T21:35:09.799Z,24.63
2018-03-14T21:39:12.338Z,27.07
2018-03-14T21:43:23.735Z,25.93
2018-03-14T21:47:26.271Z,26.90
2018-03-14T21:51:28.858Z,23.90
2018-03-14T21:55:39.010Z,24.93
2018-03-14T21:59:42.537Z,24.77
2018-03-14T22:03:45.046Z,23.73
2018-03-14T22:07:47.606Z,24.57
2018-03-14T22:11:50.123Z,20.87
2018-03-14T22:15:54.721Z,22.67
2018-03-14T22:19:57.256Z,18.67
2018-03-14T22:24:00.568Z,22.27
2018-03-14T22:28:03.092Z,22.07
2018-03-14T22:32:11.507Z,23.33
2018-03-14T22:36:14.050Z,19.67
2018-03-14T22:40:16.762Z,22.77
2018-03-14T22:44:19.279Z,23.60
2018-03-14T22:48:21.866Z,20.50
2018-03-14T22:52:24.401Z,24.33
2018-03-14T22:56:27.050Z,22.27
2018-03-14T23:00:29.630Z,20.27
2018-03-14T23:04:32.184Z,25.13
2018-03-14T23:08:34.700Z,22.90
2018-03-14T23:12:37.274Z,26.33
2018-03-14T23:16:40.561Z,27.37
2018-03-14T23:20:43.102Z,25.27
2018-03-14T23:24:45.666Z,23.17
2018-03-14T23:28:48.212Z,24.37
2018-03-14T23:32:50.737Z,25.37
2018-03-14T23:36:54.371Z,27.67
2018-03-14T23:40:57.671Z,22.00
2018-03-14T23:45:00.237Z,24.37
2018-03-14T23:49:02.789Z,26.20
2018-03-14T23:53:08.066Z,25.87
2018-03-14T23:57:10.584Z,24.93
